Aérodrome :
LOGIN :

S'inscrire | Disclaimer

   EN    FR    IT 

 










Légende :    VFR   VFR Marginal   IFR   IFR Intensif   IFR Très Intensif
Visi : 
Plafond : 
>= 8 km
>= 3000ft
5 à 8 km
1000 à 3000 ft
1500m à 5 km
500 à 1000 ft
800 à 1500m
200 à 500 ft
< 800m
< 200 ft
Symboles :   Orages  Brouillard  Fortes neiges  Fortes précipitations  Vent > 20 kt
SIGMETs :   Divers  Orages  Givrage  Turbulence  Onde Orograph.  Cendres Volcan.






- Altitude de l'aérodrome : 1375 ft
- Code IATA : SCV


LRSV - Suceava Stefan cel Mare

DERNIER METAR :
  • 161000Z 16006KT 130V200 CAVOK 15/11 Q1018

METARs EXPIRÉS :
  • 160930Z 15007KT CAVOK 14/11 Q1018
  • 160900Z 16006KT 120V180 9999 FEW007 14/11 Q1018
  • 160830Z 15005KT 120V190 9999 FEW007 13/11 Q1018
  • 160800Z 17007KT 140V200 9999 SCT005 11/11 Q1018
  • 160730Z 16006KT 130V200 8000 BKN004 11/10 Q1018

TAF TAF LRSV
Valide du 16 à 09h jusqu'au 16 à 18h UTC


160800Z 1609/1618 17008KT 9999 SCT015



MET'MAP, la Météo Aéronautique d'un coup d'oeil ! - Copyright ORBIFLY Décembre 2007 - Disclaimer

ORBIFLY MET'MAP TEAM :

Programmation & Développement : Alexandra Zaïnal
Conception & Développement : Baudouin d'Aumeries
Co-Programmation & Développement : Marc-Olivier Méhu
Soutien technique & logistique : Manuel Goepfert

Contact : metmap@orbifly.com




SOURCES & CREDITS :

   NOAA